sensor_id;sensor_type;location;lat;lon;timestamp;temperature;humidity
12967;DHT22;6548;49.996;8.238;2024-01-30T00:05:20;1.90;99.90
12967;DHT22;6548;49.996;8.238;2024-01-30T00:07:45;1.90;99.90
12967;DHT22;6548;49.996;8.238;2024-01-30T00:10:11;1.90;99.90
12967;DHT22;6548;49.996;8.238;2024-01-30T00:12:36;1.90;99.90
12967;DHT22;6548;49.996;8.238;2024-01-30T00:15:02;1.80;99.90
12967;DHT22;6548;49.996;8.238;2024-01-30T00:17:29;1.80;99.90
12967;DHT22;6548;49.996;8.238;2024-01-30T00:19:55;1.80;99.90
12967;DHT22;6548;49.996;8.238;2024-01-30T00:22:21;1.80;99.90
12967;DHT22;6548;49.996;8.238;2024-01-30T00:24:46;1.80;99.90
12967;DHT22;6548;49.996;8.238;2024-01-30T00:27:12;1.70;99.90
12967;DHT22;6548;49.996;8.238;2024-01-30T00:29:37;1.80;99.90
12967;DHT22;6548;49.996;8.238;2024-01-30T00:32:03;1.70;99.90
12967;DHT22;6548;49.996;8.238;2024-01-30T00:34:29;1.70;99.90
12967;DHT22;6548;49.996;8.238;2024-01-30T00:36:54;1.70;99.90
12967;DHT22;6548;49.996;8.238;2024-01-30T00:39:20;1.60;99.90
12967;DHT22;6548;49.996;8.238;2024-01-30T00:41:45;1.70;99.90
12967;DHT22;6548;49.996;8.238;2024-01-30T00:44:11;1.70;99.90
12967;DHT22;6548;49.996;8.238;2024-01-30T00:46:37;1.60;99.90
12967;DHT22;6548;49.996;8.238;2024-01-30T00:49:02;1.60;99.90
12967;DHT22;6548;49.996;8.238;2024-01-30T00:51:28;1.70;99.90
12967;DHT22;6548;49.996;8.238;2024-01-30T00:53:55;1.60;99.90
12967;DHT22;6548;49.996;8.238;2024-01-30T00:56:20;1.60;99.90
12967;DHT22;6548;49.996;8.238;2024-01-30T00:58:46;1.50;99.90
12967;DHT22;6548;49.996;8.238;2024-01-30T01:01:12;1.50;99.90
12967;DHT22;6548;49.996;8.238;2024-01-30T01:03:38;1.40;99.90
12967;DHT22;6548;49.996;8.238;2024-01-30T01:06:06;1.40;99.90
12967;DHT22;6548;49.996;8.238;2024-01-30T01:08:31;1.50;99.90
12967;DHT22;6548;49.996;8.238;2024-01-30T01:10:57;1.40;99.90
12967;DHT22;6548;49.996;8.238;2024-01-30T01:13:22;1.40;99.90
12967;DHT22;6548;49.996;8.238;2024-01-30T01:15:48;1.40;99.90
12967;DHT22;6548;49.996;8.238;2024-01-30T01:18:13;1.30;99.90
12967;DHT22;6548;49.996;8.238;2024-01-30T01:20:39;1.30;99.90
12967;DHT22;6548;49.996;8.238;2024-01-30T01:23:04;1.30;99.90
12967;DHT22;6548;49.996;8.238;2024-01-30T01:25:30;1.30;99.90
12967;DHT22;6548;49.996;8.238;2024-01-30T01:27:55;1.20;99.90
12967;DHT22;6548;49.996;8.238;2024-01-30T01:30:21;1.30;99.90
12967;DHT22;6548;49.996;8.238;2024-01-30T01:32:50;1.20;99.90
12967;DHT22;6548;49.996;8.238;2024-01-30T01:35:22;1.30;99.90
12967;DHT22;6548;49.996;8.238;2024-01-30T01:37:48;1.30;99.90
12967;DHT22;6548;49.996;8.238;2024-01-30T01:40:21;1.30;99.90
12967;DHT22;6548;49.996;8.238;2024-01-30T01:42:46;1.30;99.90
12967;DHT22;6548;49.996;8.238;2024-01-30T01:45:12;1.30;99.90
12967;DHT22;6548;49.996;8.238;2024-01-30T01:47:37;1.40;99.90
12967;DHT22;6548;49.996;8.238;2024-01-30T01:50:03;1.30;99.90
12967;DHT22;6548;49.996;8.238;2024-01-30T01:52:29;1.30;99.90
12967;DHT22;6548;49.996;8.238;2024-01-30T01:54:55;1.30;99.90
12967;DHT22;6548;49.996;8.238;2024-01-30T01:57:20;1.30;99.90
12967;DHT22;6548;49.996;8.238;2024-01-30T01:59:47;1.30;99.90
12967;DHT22;6548;49.996;8.238;2024-01-30T02:02:14;1.30;99.90
12967;DHT22;6548;49.996;8.238;2024-01-30T02:04:43;1.30;99.90
12967;DHT22;6548;49.996;8.238;2024-01-30T02:07:09;1.20;99.90
12967;DHT22;6548;49.996;8.238;2024-01-30T02:09:35;1.20;99.90
12967;DHT22;6548;49.996;8.238;2024-01-30T02:12:00;1.30;99.90
12967;DHT22;6548;49.996;8.238;2024-01-30T02:14:26;1.20;99.90
12967;DHT22;6548;49.996;8.238;2024-01-30T02:16:51;1.30;99.90
12967;DHT22;6548;49.996;8.238;2024-01-30T02:19:17;1.30;99.90
12967;DHT22;6548;49.996;8.238;2024-01-30T02:21:44;1.30;99.90
12967;DHT22;6548;49.996;8.238;2024-01-30T02:24:10;1.20;99.90
12967;DHT22;6548;49.996;8.238;2024-01-30T02:26:35;1.20;99.90
12967;DHT22;6548;49.996;8.238;2024-01-30T02:29:01;1.10;99.90
12967;DHT22;6548;49.996;8.238;2024-01-30T02:31:27;1.10;99.90
12967;DHT22;6548;49.996;8.238;2024-01-30T02:33:52;1.10;99.90
12967;DHT22;6548;49.996;8.238;2024-01-30T02:36:18;1.20;99.90
12967;DHT22;6548;49.996;8.238;2024-01-30T02:38:43;1.20;99.90
12967;DHT22;6548;49.996;8.238;2024-01-30T02:41:09;1.20;99.90
12967;DHT22;6548;49.996;8.238;2024-01-30T02:43:35;1.20;99.90
12967;DHT22;6548;49.996;8.238;2024-01-30T02:46:00;1.20;99.90
12967;DHT22;6548;49.996;8.238;2024-01-30T02:48:26;1.20;99.90
12967;DHT22;6548;49.996;8.238;2024-01-30T02:50:52;1.20;99.90
12967;DHT22;6548;49.996;8.238;2024-01-30T02:53:17;1.20;99.90
12967;DHT22;6548;49.996;8.238;2024-01-30T02:55:43;1.20;99.90
12967;DHT22;6548;49.996;8.238;2024-01-30T02:58:08;1.10;99.90
12967;DHT22;6548;49.996;8.238;2024-01-30T03:00:34;1.10;99.90
12967;DHT22;6548;49.996;8.238;2024-01-30T03:03:00;1.10;99.90
12967;DHT22;6548;49.996;8.238;2024-01-30T03:05:26;1.00;99.90
12967;DHT22;6548;49.996;8.238;2024-01-30T03:07:51;1.00;99.90
12967;DHT22;6548;49.996;8.238;2024-01-30T03:10:17;0.90;99.90
12967;DHT22;6548;49.996;8.238;2024-01-30T03:12:42;0.90;99.90
12967;DHT22;6548;49.996;8.238;2024-01-30T03:15:08;1.00;99.90
12967;DHT22;6548;49.996;8.238;2024-01-30T03:17:35;1.00;99.90
12967;DHT22;6548;49.996;8.238;2024-01-30T03:20:02;0.90;99.90
12967;DHT22;6548;49.996;8.238;2024-01-30T03:22:29;0.90;99.90
12967;DHT22;6548;49.996;8.238;2024-01-30T03:24:54;1.00;99.90
12967;DHT22;6548;49.996;8.238;2024-01-30T03:27:27;0.90;99.90
12967;DHT22;6548;49.996;8.238;2024-01-30T03:29:53;1.00;99.90
12967;DHT22;6548;49.996;8.238;2024-01-30T03:32:18;0.90;99.90
12967;DHT22;6548;49.996;8.238;2024-01-30T03:34:44;0.90;99.90
12967;DHT22;6548;49.996;8.238;2024-01-30T03:37:09;0.80;99.90
12967;DHT22;6548;49.996;8.238;2024-01-30T03:39:35;0.90;99.90
12967;DHT22;6548;49.996;8.238;2024-01-30T03:42:02;0.80;99.90
12967;DHT22;6548;49.996;8.238;2024-01-30T03:44:27;0.70;99.90
12967;DHT22;6548;49.996;8.238;2024-01-30T03:46:53;0.70;99.90
12967;DHT22;6548;49.996;8.238;2024-01-30T03:49:18;0.60;99.90
12967;DHT22;6548;49.996;8.238;2024-01-30T03:51:44;0.60;99.90
12967;DHT22;6548;49.996;8.238;2024-01-30T03:54:10;0.60;99.90
12967;DHT22;6548;49.996;8.238;2024-01-30T03:56:35;0.60;99.90
12967;DHT22;6548;49.996;8.238;2024-01-30T03:59:01;0.70;99.90
12967;DHT22;6548;49.996;8.238;2024-01-30T04:01:28;0.80;99.90
12967;DHT22;6548;49.996;8.238;2024-01-30T04:03:53;0.80;99.90
12967;DHT22;6548;49.996;8.238;2024-01-30T04:06:19;0.80;99.90
12967;DHT22;6548;49.996;8.238;2024-01-30T04:08:44;0.90;99.90
12967;DHT22;6548;49.996;8.238;2024-01-30T04:11:10;0.90;99.90
12967;DHT22;6548;49.996;8.238;2024-01-30T04:13:35;0.80;99.90
12967;DHT22;6548;49.996;8.238;2024-01-30T04:16:02;0.80;99.90
12967;DHT22;6548;49.996;8.238;2024-01-30T04:18:28;0.80;99.90
12967;DHT22;6548;49.996;8.238;2024-01-30T04:20:54;0.80;99.90
12967;DHT22;6548;49.996;8.238;2024-01-30T04:23:19;0.80;99.90
12967;DHT22;6548;49.996;8.238;2024-01-30T04:25:45;0.80;99.90
12967;DHT22;6548;49.996;8.238;2024-01-30T04:28:10;0.80;99.90
12967;DHT22;6548;49.996;8.238;2024-01-30T04:30:39;0.80;99.90
12967;DHT22;6548;49.996;8.238;2024-01-30T04:33:05;0.90;99.90
12967;DHT22;6548;49.996;8.238;2024-01-30T04:35:30;0.80;99.90
12967;DHT22;6548;49.996;8.238;2024-01-30T04:37:56;0.80;99.90
12967;DHT22;6548;49.996;8.238;2024-01-30T04:40:22;0.70;99.90
12967;DHT22;6548;49.996;8.238;2024-01-30T04:42:47;0.70;99.90
12967;DHT22;6548;49.996;8.238;2024-01-30T04:45:13;0.70;99.90
12967;DHT22;6548;49.996;8.238;2024-01-30T04:47:38;0.70;99.90
12967;DHT22;6548;49.996;8.238;2024-01-30T04:50:08;0.70;99.90
12967;DHT22;6548;49.996;8.238;2024-01-30T04:52:34;0.60;99.90
12967;DHT22;6548;49.996;8.238;2024-01-30T04:55:00;0.70;99.90
12967;DHT22;6548;49.996;8.238;2024-01-30T04:57:25;0.70;99.90
12967;DHT22;6548;49.996;8.238;2024-01-30T04:59:51;0.60;99.90
12967;DHT22;6548;49.996;8.238;2024-01-30T05:02:16;0.60;99.90
12967;DHT22;6548;49.996;8.238;2024-01-30T05:04:42;0.70;99.90
12967;DHT22;6548;49.996;8.238;2024-01-30T05:07:07;0.70;99.90
12967;DHT22;6548;49.996;8.238;2024-01-30T05:09:33;0.70;99.90
12967;DHT22;6548;49.996;8.238;2024-01-30T05:11:58;0.70;99.90
12967;DHT22;6548;49.996;8.238;2024-01-30T05:14:24;0.70;99.90
12967;DHT22;6548;49.996;8.238;2024-01-30T05:16:50;0.70;99.90
12967;DHT22;6548;49.996;8.238;2024-01-30T05:19:16;0.60;99.90
12967;DHT22;6548;49.996;8.238;2024-01-30T05:21:42;0.60;99.90
12967;DHT22;6548;49.996;8.238;2024-01-30T05:24:08;0.60;99.90
12967;DHT22;6548;49.996;8.238;2024-01-30T05:26:35;0.50;99.90
12967;DHT22;6548;49.996;8.238;2024-01-30T05:29:01;0.50;99.90
12967;DHT22;6548;49.996;8.238;2024-01-30T05:31:26;0.60;99.90
12967;DHT22;6548;49.996;8.238;2024-01-30T05:33:52;0.60;99.90
12967;DHT22;6548;49.996;8.238;2024-01-30T05:36:18;0.70;99.90
12967;DHT22;6548;49.996;8.238;2024-01-30T05:38:43;0.70;99.90
12967;DHT22;6548;49.996;8.238;2024-01-30T05:41:09;0.60;99.90
12967;DHT22;6548;49.996;8.238;2024-01-30T05:43:35;0.60;99.90
12967;DHT22;6548;49.996;8.238;2024-01-30T05:46:00;0.60;99.90
12967;DHT22;6548;49.996;8.238;2024-01-30T05:48:26;0.60;99.90
12967;DHT22;6548;49.996;8.238;2024-01-30T05:50:51;0.50;99.90
12967;DHT22;6548;49.996;8.238;2024-01-30T05:53:17;0.40;99.90
12967;DHT22;6548;49.996;8.238;2024-01-30T05:55:42;0.40;99.90
12967;DHT22;6548;49.996;8.238;2024-01-30T05:58:08;0.40;99.90
12967;DHT22;6548;49.996;8.238;2024-01-30T06:00:33;0.40;99.90
12967;DHT22;6548;49.996;8.238;2024-01-30T06:02:59;0.40;99.90
12967;DHT22;6548;49.996;8.238;2024-01-30T06:05:24;0.40;99.90
12967;DHT22;6548;49.996;8.238;2024-01-30T06:07:50;0.30;99.90
12967;DHT22;6548;49.996;8.238;2024-01-30T06:10:15;0.30;99.90
12967;DHT22;6548;49.996;8.238;2024-01-30T06:12:41;0.40;99.90
12967;DHT22;6548;49.996;8.238;2024-01-30T06:15:06;0.40;99.90
12967;DHT22;6548;49.996;8.238;2024-01-30T06:17:32;0.40;99.90
12967;DHT22;6548;49.996;8.238;2024-01-30T06:19:58;0.50;99.90
12967;DHT22;6548;49.996;8.238;2024-01-30T06:22:24;0.50;99.90
12967;DHT22;6548;49.996;8.238;2024-01-30T06:24:49;0.40;99.90
12967;DHT22;6548;49.996;8.238;2024-01-30T06:27:15;0.50;99.90
12967;DHT22;6548;49.996;8.238;2024-01-30T06:29:42;0.50;99.90
12967;DHT22;6548;49.996;8.238;2024-01-30T06:32:08;0.50;99.90
12967;DHT22;6548;49.996;8.238;2024-01-30T06:34:34;0.50;99.90
12967;DHT22;6548;49.996;8.238;2024-01-30T06:36:59;0.50;99.90
12967;DHT22;6548;49.996;8.238;2024-01-30T06:39:26;0.50;99.90
12967;DHT22;6548;49.996;8.238;2024-01-30T06:41:51;0.60;99.90
12967;DHT22;6548;49.996;8.238;2024-01-30T06:44:17;0.50;99.90
12967;DHT22;6548;49.996;8.238;2024-01-30T06:46:42;0.60;99.90
12967;DHT22;6548;49.996;8.238;2024-01-30T06:49:08;0.60;99.90
12967;DHT22;6548;49.996;8.238;2024-01-30T06:51:33;0.50;99.90
12967;DHT22;6548;49.996;8.238;2024-01-30T06:53:59;0.50;99.90
12967;DHT22;6548;49.996;8.238;2024-01-30T06:56:25;0.50;99.90
12967;DHT22;6548;49.996;8.238;2024-01-30T06:58:50;0.50;99.90
12967;DHT22;6548;49.996;8.238;2024-01-30T07:01:16;0.50;99.90
12967;DHT22;6548;49.996;8.238;2024-01-30T07:03:43;0.50;99.90
12967;DHT22;6548;49.996;8.238;2024-01-30T07:06:09;0.50;99.90
12967;DHT22;6548;49.996;8.238;2024-01-30T07:08:36;0.50;99.90
12967;DHT22;6548;49.996;8.238;2024-01-30T07:11:02;0.50;99.90
12967;DHT22;6548;49.996;8.238;2024-01-30T07:13:28;0.50;99.90
12967;DHT22;6548;49.996;8.238;2024-01-30T07:15:54;0.60;99.90
12967;DHT22;6548;49.996;8.238;2024-01-30T07:18:19;0.60;99.90
12967;DHT22;6548;49.996;8.238;2024-01-30T07:20:45;0.60;99.90
12967;DHT22;6548;49.996;8.238;2024-01-30T07:23:15;0.70;99.90
12967;DHT22;6548;49.996;8.238;2024-01-30T07:25:43;0.70;99.90
12967;DHT22;6548;49.996;8.238;2024-01-30T07:28:09;0.80;99.90
12967;DHT22;6548;49.996;8.238;2024-01-30T07:30:36;0.80;99.90
12967;DHT22;6548;49.996;8.238;2024-01-30T07:33:01;0.80;99.90
12967;DHT22;6548;49.996;8.238;2024-01-30T07:35:27;0.80;99.90
12967;DHT22;6548;49.996;8.238;2024-01-30T07:37:52;0.80;99.90
12967;DHT22;6548;49.996;8.238;2024-01-30T07:40:18;0.90;99.90
12967;DHT22;6548;49.996;8.238;2024-01-30T07:42:43;0.90;99.90
12967;DHT22;6548;49.996;8.238;2024-01-30T07:45:09;0.90;99.90
12967;DHT22;6548;49.996;8.238;2024-01-30T07:47:35;0.90;99.90
12967;DHT22;6548;49.996;8.238;2024-01-30T07:50:01;1.00;99.90
12967;DHT22;6548;49.996;8.238;2024-01-30T07:52:26;1.00;99.90
12967;DHT22;6548;49.996;8.238;2024-01-30T07:54:52;1.10;99.90
12967;DHT22;6548;49.996;8.238;2024-01-30T07:57:17;1.20;99.90
12967;DHT22;6548;49.996;8.238;2024-01-30T07:59:44;1.30;99.90
12967;DHT22;6548;49.996;8.238;2024-01-30T08:02:10;1.40;99.90
12967;DHT22;6548;49.996;8.238;2024-01-30T08:04:35;1.50;99.90
12967;DHT22;6548;49.996;8.238;2024-01-30T08:07:01;1.60;99.90
12967;DHT22;6548;49.996;8.238;2024-01-30T08:09:26;1.70;99.90
12967;DHT22;6548;49.996;8.238;2024-01-30T08:11:52;1.80;99.90
12967;DHT22;6548;49.996;8.238;2024-01-30T08:14:18;1.90;99.90
12967;DHT22;6548;49.996;8.238;2024-01-30T08:16:44;2.00;99.90
12967;DHT22;6548;49.996;8.238;2024-01-30T08:19:09;2.20;99.90
12967;DHT22;6548;49.996;8.238;2024-01-30T08:21:35;2.20;99.90
12967;DHT22;6548;49.996;8.238;2024-01-30T08:24:03;2.30;99.90
12967;DHT22;6548;49.996;8.238;2024-01-30T08:26:30;2.30;99.90
12967;DHT22;6548;49.996;8.238;2024-01-30T08:28:56;2.40;99.90
12967;DHT22;6548;49.996;8.238;2024-01-30T08:31:21;2.40;99.90
12967;DHT22;6548;49.996;8.238;2024-01-30T08:33:47;2.40;99.90
12967;DHT22;6548;49.996;8.238;2024-01-30T08:36:12;2.50;99.90
12967;DHT22;6548;49.996;8.238;2024-01-30T08:38:38;2.60;99.90
12967;DHT22;6548;49.996;8.238;2024-01-30T08:41:03;2.50;99.90
12967;DHT22;6548;49.996;8.238;2024-01-30T08:43:29;2.60;99.90
12967;DHT22;6548;49.996;8.238;2024-01-30T08:45:54;2.60;99.90
12967;DHT22;6548;49.996;8.238;2024-01-30T08:48:21;2.60;99.90
12967;DHT22;6548;49.996;8.238;2024-01-30T08:50:48;2.70;99.90
12967;DHT22;6548;49.996;8.238;2024-01-30T08:53:13;2.70;99.90
12967;DHT22;6548;49.996;8.238;2024-01-30T08:55:38;2.80;99.90
12967;DHT22;6548;49.996;8.238;2024-01-30T08:58:04;2.90;99.90
12967;DHT22;6548;49.996;8.238;2024-01-30T09:00:30;2.90;99.90
12967;DHT22;6548;49.996;8.238;2024-01-30T09:02:55;3.00;99.90
12967;DHT22;6548;49.996;8.238;2024-01-30T09:05:21;3.00;99.90
12967;DHT22;6548;49.996;8.238;2024-01-30T09:07:46;3.10;99.90
12967;DHT22;6548;49.996;8.238;2024-01-30T09:10:12;3.20;99.90
12967;DHT22;6548;49.996;8.238;2024-01-30T09:12:38;3.20;99.90
12967;DHT22;6548;49.996;8.238;2024-01-30T09:15:03;3.30;99.90
12967;DHT22;6548;49.996;8.238;2024-01-30T09:17:29;3.30;99.90
12967;DHT22;6548;49.996;8.238;2024-01-30T09:19:55;3.40;99.90
12967;DHT22;6548;49.996;8.238;2024-01-30T09:22:20;3.40;99.90
12967;DHT22;6548;49.996;8.238;2024-01-30T09:24:46;3.50;99.90
12967;DHT22;6548;49.996;8.238;2024-01-30T09:27:12;3.50;99.90
12967;DHT22;6548;49.996;8.238;2024-01-30T09:29:37;3.50;99.90
12967;DHT22;6548;49.996;8.238;2024-01-30T09:32:04;3.60;99.90
12967;DHT22;6548;49.996;8.238;2024-01-30T09:34:29;3.70;99.90
12967;DHT22;6548;49.996;8.238;2024-01-30T09:36:55;3.60;99.90
12967;DHT22;6548;49.996;8.238;2024-01-30T09:39:20;3.60;99.90
12967;DHT22;6548;49.996;8.238;2024-01-30T09:41:55;3.70;99.90
12967;DHT22;6548;49.996;8.238;2024-01-30T09:44:28;3.70;99.90
12967;DHT22;6548;49.996;8.238;2024-01-30T09:46:55;3.80;99.90
12967;DHT22;6548;49.996;8.238;2024-01-30T09:49:20;3.80;99.90
12967;DHT22;6548;49.996;8.238;2024-01-30T09:51:50;3.90;99.90
12967;DHT22;6548;49.996;8.238;2024-01-30T09:54:15;3.80;99.90
12967;DHT22;6548;49.996;8.238;2024-01-30T09:56:42;3.90;99.90
12967;DHT22;6548;49.996;8.238;2024-01-30T09:59:07;3.90;99.90
12967;DHT22;6548;49.996;8.238;2024-01-30T10:01:35;3.80;99.90
12967;DHT22;6548;49.996;8.238;2024-01-30T10:04:00;3.90;99.90
12967;DHT22;6548;49.996;8.238;2024-01-30T10:06:26;4.00;99.90
12967;DHT22;6548;49.996;8.238;2024-01-30T10:08:53;4.00;99.90
12967;DHT22;6548;49.996;8.238;2024-01-30T10:11:18;4.10;99.90
12967;DHT22;6548;49.996;8.238;2024-01-30T10:13:43;4.20;99.90
12967;DHT22;6548;49.996;8.238;2024-01-30T10:16:09;4.20;99.90
12967;DHT22;6548;49.996;8.238;2024-01-30T10:18:35;4.30;99.90
12967;DHT22;6548;49.996;8.238;2024-01-30T10:21:00;4.40;99.90
12967;DHT22;6548;49.996;8.238;2024-01-30T10:23:26;4.40;99.90
12967;DHT22;6548;49.996;8.238;2024-01-30T10:25:52;4.60;99.90
12967;DHT22;6548;49.996;8.238;2024-01-30T10:28:17;5.00;99.90
12967;DHT22;6548;49.996;8.238;2024-01-30T10:30:43;5.30;99.90
12967;DHT22;6548;49.996;8.238;2024-01-30T10:33:09;5.30;99.90
12967;DHT22;6548;49.996;8.238;2024-01-30T10:35:34;5.30;99.90
12967;DHT22;6548;49.996;8.238;2024-01-30T10:38:00;5.50;99.90
12967;DHT22;6548;49.996;8.238;2024-01-30T10:40:29;5.60;99.90
12967;DHT22;6548;49.996;8.238;2024-01-30T10:42:55;5.60;99.90
12967;DHT22;6548;49.996;8.238;2024-01-30T10:45:22;5.50;99.90
12967;DHT22;6548;49.996;8.238;2024-01-30T10:47:53;5.60;99.90
12967;DHT22;6548;49.996;8.238;2024-01-30T10:50:24;5.70;99.90
12967;DHT22;6548;49.996;8.238;2024-01-30T10:52:50;5.90;99.90
12967;DHT22;6548;49.996;8.238;2024-01-30T10:55:16;5.90;99.90
12967;DHT22;6548;49.996;8.238;2024-01-30T10:57:43;6.00;99.90
12967;DHT22;6548;49.996;8.238;2024-01-30T11:00:10;6.10;99.90
12967;DHT22;6548;49.996;8.238;2024-01-30T11:02:39;6.20;99.90
12967;DHT22;6548;49.996;8.238;2024-01-30T11:05:05;6.20;99.90
12967;DHT22;6548;49.996;8.238;2024-01-30T11:07:31;7.80;99.90
12967;DHT22;6548;49.996;8.238;2024-01-30T11:10:03;8.50;99.90
12967;DHT22;6548;49.996;8.238;2024-01-30T11:12:29;8.40;99.90
12967;DHT22;6548;49.996;8.238;2024-01-30T11:17:50;8.30;99.90
12967;DHT22;6548;49.996;8.238;2024-01-30T11:20:29;8.70;99.90
12967;DHT22;6548;49.996;8.238;2024-01-30T11:22:59;8.30;99.90
12967;DHT22;6548;49.996;8.238;2024-01-30T11:25:25;8.00;99.90
12967;DHT22;6548;49.996;8.238;2024-01-30T11:27:53;7.80;99.90
12967;DHT22;6548;49.996;8.238;2024-01-30T11:30:26;7.50;99.90
12967;DHT22;6548;49.996;8.238;2024-01-30T11:35:41;7.10;99.90
12967;DHT22;6548;49.996;8.238;2024-01-30T11:38:08;6.90;99.90
12967;DHT22;6548;49.996;8.238;2024-01-30T11:40:35;6.90;99.90
12967;DHT22;6548;49.996;8.238;2024-01-30T11:43:02;6.70;99.90
12967;DHT22;6548;49.996;8.238;2024-01-30T11:45:28;6.70;99.90
12967;DHT22;6548;49.996;8.238;2024-01-30T11:47:54;7.00;99.90
12967;DHT22;6548;49.996;8.238;2024-01-30T11:50:20;7.40;99.90
12967;DHT22;6548;49.996;8.238;2024-01-30T11:52:46;8.80;99.90
12967;DHT22;6548;49.996;8.238;2024-01-30T11:55:12;9.50;99.90
12967;DHT22;6548;49.996;8.238;2024-01-30T11:57:38;9.40;99.90
12967;DHT22;6548;49.996;8.238;2024-01-30T12:00:04;9.00;99.90
12967;DHT22;6548;49.996;8.238;2024-01-30T12:02:36;8.70;99.90
12967;DHT22;6548;49.996;8.238;2024-01-30T12:05:08;8.80;99.90
12967;DHT22;6548;49.996;8.238;2024-01-30T12:07:34;9.20;99.90
12967;DHT22;6548;49.996;8.238;2024-01-30T12:10:00;9.90;99.90
12967;DHT22;6548;49.996;8.238;2024-01-30T12:12:27;10.30;99.90
12967;DHT22;6548;49.996;8.238;2024-01-30T12:14:53;10.80;99.90
12967;DHT22;6548;49.996;8.238;2024-01-30T12:20:07;12.10;99.90
12967;DHT22;6548;49.996;8.238;2024-01-30T12:22:39;11.80;99.90
12967;DHT22;6548;49.996;8.238;2024-01-30T12:25:11;11.70;99.90
12967;DHT22;6548;49.996;8.238;2024-01-30T12:27:37;11.60;99.90
12967;DHT22;6548;49.996;8.238;2024-01-30T12:30:10;11.00;99.90
12967;DHT22;6548;49.996;8.238;2024-01-30T12:32:37;10.30;99.90
12967;DHT22;6548;49.996;8.238;2024-01-30T12:35:07;10.00;99.90
12967;DHT22;6548;49.996;8.238;2024-01-30T12:37:33;9.80;99.90
12967;DHT22;6548;49.996;8.238;2024-01-30T12:39:59;10.10;99.90
12967;DHT22;6548;49.996;8.238;2024-01-30T12:42:26;10.10;99.90
12967;DHT22;6548;49.996;8.238;2024-01-30T12:44:52;9.90;99.90
12967;DHT22;6548;49.996;8.238;2024-01-30T12:47:18;9.70;99.90
12967;DHT22;6548;49.996;8.238;2024-01-30T12:49:44;9.40;99.90
12967;DHT22;6548;49.996;8.238;2024-01-30T12:52:11;9.10;99.90
12967;DHT22;6548;49.996;8.238;2024-01-30T12:54:37;8.80;99.90
12967;DHT22;6548;49.996;8.238;2024-01-30T12:57:03;8.60;99.90
12967;DHT22;6548;49.996;8.238;2024-01-30T12:59:29;8.60;99.90
12967;DHT22;6548;49.996;8.238;2024-01-30T13:01:54;8.40;99.90
12967;DHT22;6548;49.996;8.238;2024-01-30T13:04:20;8.30;99.90
12967;DHT22;6548;49.996;8.238;2024-01-30T13:06:46;8.10;99.90
12967;DHT22;6548;49.996;8.238;2024-01-30T13:09:11;8.00;99.90
12967;DHT22;6548;49.996;8.238;2024-01-30T13:11:37;8.00;99.90
12967;DHT22;6548;49.996;8.238;2024-01-30T13:14:03;8.00;99.90
12967;DHT22;6548;49.996;8.238;2024-01-30T13:16:28;8.20;99.90
12967;DHT22;6548;49.996;8.238;2024-01-30T13:18:54;8.40;99.90
12967;DHT22;6548;49.996;8.238;2024-01-30T13:21:21;8.60;99.90
12967;DHT22;6548;49.996;8.238;2024-01-30T13:23:46;8.80;99.90
12967;DHT22;6548;49.996;8.238;2024-01-30T13:26:12;9.10;99.90
12967;DHT22;6548;49.996;8.238;2024-01-30T13:28:37;9.60;99.90
12967;DHT22;6548;49.996;8.238;2024-01-30T13:31:03;9.80;99.90
12967;DHT22;6548;49.996;8.238;2024-01-30T13:33:30;9.80;99.90
12967;DHT22;6548;49.996;8.238;2024-01-30T13:35:56;9.70;99.90
12967;DHT22;6548;49.996;8.238;2024-01-30T13:38:21;9.70;99.90
12967;DHT22;6548;49.996;8.238;2024-01-30T13:40:47;9.60;99.90
12967;DHT22;6548;49.996;8.238;2024-01-30T13:43:12;9.60;99.90
12967;DHT22;6548;49.996;8.238;2024-01-30T13:45:38;9.50;99.90
12967;DHT22;6548;49.996;8.238;2024-01-30T13:48:03;9.40;99.90
12967;DHT22;6548;49.996;8.238;2024-01-30T13:50:29;9.30;99.90
12967;DHT22;6548;49.996;8.238;2024-01-30T13:52:54;9.20;99.90
12967;DHT22;6548;49.996;8.238;2024-01-30T13:55:20;8.90;99.90
12967;DHT22;6548;49.996;8.238;2024-01-30T13:57:46;8.70;99.90
12967;DHT22;6548;49.996;8.238;2024-01-30T14:00:12;8.50;99.90
12967;DHT22;6548;49.996;8.238;2024-01-30T14:02:41;8.40;99.90
12967;DHT22;6548;49.996;8.238;2024-01-30T14:05:07;8.30;99.90
12967;DHT22;6548;49.996;8.238;2024-01-30T14:07:32;8.20;99.90
12967;DHT22;6548;49.996;8.238;2024-01-30T14:09:58;8.10;99.90
12967;DHT22;6548;49.996;8.238;2024-01-30T14:12:24;8.00;99.90
12967;DHT22;6548;49.996;8.238;2024-01-30T14:14:49;7.90;99.90
12967;DHT22;6548;49.996;8.238;2024-01-30T14:17:15;7.90;99.90
12967;DHT22;6548;49.996;8.238;2024-01-30T14:19:41;7.80;99.90
12967;DHT22;6548;49.996;8.238;2024-01-30T14:22:06;7.80;99.90
12967;DHT22;6548;49.996;8.238;2024-01-30T14:24:32;7.70;99.90
12967;DHT22;6548;49.996;8.238;2024-01-30T14:26:57;7.70;99.90
12967;DHT22;6548;49.996;8.238;2024-01-30T14:29:24;7.70;99.90
12967;DHT22;6548;49.996;8.238;2024-01-30T14:31:50;7.60;99.90
12967;DHT22;6548;49.996;8.238;2024-01-30T14:34:16;7.60;99.90
12967;DHT22;6548;49.996;8.238;2024-01-30T14:36:42;7.60;99.90
12967;DHT22;6548;49.996;8.238;2024-01-30T14:39:08;7.50;99.90
12967;DHT22;6548;49.996;8.238;2024-01-30T14:41:33;7.50;99.90
12967;DHT22;6548;49.996;8.238;2024-01-30T14:43:59;7.50;99.90
12967;DHT22;6548;49.996;8.238;2024-01-30T14:46:25;7.50;99.90
12967;DHT22;6548;49.996;8.238;2024-01-30T14:48:52;7.40;99.90
12967;DHT22;6548;49.996;8.238;2024-01-30T14:51:18;7.40;99.90
12967;DHT22;6548;49.996;8.238;2024-01-30T14:53:43;7.30;99.90
12967;DHT22;6548;49.996;8.238;2024-01-30T14:56:10;7.30;99.90
12967;DHT22;6548;49.996;8.238;2024-01-30T14:58:36;7.30;99.90
12967;DHT22;6548;49.996;8.238;2024-01-30T15:01:02;7.20;99.90
12967;DHT22;6548;49.996;8.238;2024-01-30T15:03:28;7.20;99.90
12967;DHT22;6548;49.996;8.238;2024-01-30T15:05:56;7.20;99.90
12967;DHT22;6548;49.996;8.238;2024-01-30T15:08:22;7.10;99.90
12967;DHT22;6548;49.996;8.238;2024-01-30T15:10:47;7.10;99.90
12967;DHT22;6548;49.996;8.238;2024-01-30T15:13:13;7.00;99.90
12967;DHT22;6548;49.996;8.238;2024-01-30T15:15:38;7.00;99.90
12967;DHT22;6548;49.996;8.238;2024-01-30T15:18:04;7.00;99.90
12967;DHT22;6548;49.996;8.238;2024-01-30T15:20:30;6.90;99.90
12967;DHT22;6548;49.996;8.238;2024-01-30T15:22:57;6.90;99.90
12967;DHT22;6548;49.996;8.238;2024-01-30T15:25:22;6.80;99.90
12967;DHT22;6548;49.996;8.238;2024-01-30T15:27:48;6.80;99.90
12967;DHT22;6548;49.996;8.238;2024-01-30T15:30:14;6.80;99.90
12967;DHT22;6548;49.996;8.238;2024-01-30T15:32:39;6.80;99.90
12967;DHT22;6548;49.996;8.238;2024-01-30T15:35:05;6.80;99.90
12967;DHT22;6548;49.996;8.238;2024-01-30T15:37:32;6.80;99.90
12967;DHT22;6548;49.996;8.238;2024-01-30T15:39:57;6.80;99.90
12967;DHT22;6548;49.996;8.238;2024-01-30T15:42:23;6.80;99.90
12967;DHT22;6548;49.996;8.238;2024-01-30T15:44:48;6.70;99.90
12967;DHT22;6548;49.996;8.238;2024-01-30T15:47:14;6.70;99.90
12967;DHT22;6548;49.996;8.238;2024-01-30T15:49:39;6.60;99.90
12967;DHT22;6548;49.996;8.238;2024-01-30T15:52:05;6.60;99.90
12967;DHT22;6548;49.996;8.238;2024-01-30T15:54:31;6.60;99.90
12967;DHT22;6548;49.996;8.238;2024-01-30T15:56:56;6.60;99.90
12967;DHT22;6548;49.996;8.238;2024-01-30T15:59:22;6.60;99.90
12967;DHT22;6548;49.996;8.238;2024-01-30T16:01:47;6.60;99.90
12967;DHT22;6548;49.996;8.238;2024-01-30T16:04:17;6.60;99.90
12967;DHT22;6548;49.996;8.238;2024-01-30T16:06:43;6.50;99.90